createdAt,value
2022-10-11T00:02:58.180Z,9.36
2022-10-11T00:06:04.085Z,9.29
2022-10-11T00:09:07.629Z,9.21
2022-10-11T00:12:11.448Z,8.97
2022-10-11T00:15:17.326Z,9.07
2022-10-11T00:18:21.091Z,9.04
2022-10-11T00:21:25.322Z,8.93
2022-10-11T00:24:28.874Z,8.85
2022-10-11T00:27:32.438Z,8.71
2022-10-11T00:30:35.925Z,8.60
2022-10-11T00:33:39.588Z,8.24
2022-10-11T00:36:43.065Z,8.33
2022-10-11T00:39:46.138Z,8.27
2022-10-11T00:42:49.341Z,8.13
2022-10-11T00:45:58.150Z,8.02
2022-10-11T00:49:19.750Z,7.90
2022-10-11T00:52:38.075Z,7.74
2022-10-11T00:55:51.874Z,7.69
2022-10-11T00:58:56.399Z,7.57
2022-10-11T01:01:59.835Z,7.51
2022-10-11T01:05:27.587Z,7.37
2022-10-11T01:08:27.652Z,7.09
2022-10-11T01:11:31.542Z,7.03
2022-10-11T01:14:47.902Z,7.09
2022-10-11T01:18:03.889Z,7.08
2022-10-11T01:21:26.740Z,7.06
2022-10-11T01:25:03.808Z,6.95
2022-10-11T01:28:27.212Z,7.00
2022-10-11T01:32:00.114Z,7.00
2022-10-11T01:35:42.702Z,6.98
2022-10-11T01:38:53.035Z,6.95
2022-10-11T01:42:00.772Z,6.94
2022-10-11T01:45:05.786Z,6.84
2022-10-11T01:48:13.002Z,6.89
2022-10-11T01:51:16.330Z,6.88
2022-10-11T01:55:07.684Z,6.86
2022-10-11T01:58:19.833Z,6.85
2022-10-11T02:01:38.009Z,6.82
2022-10-11T02:04:53.618Z,6.83
2022-10-11T02:08:18.085Z,6.86
2022-10-11T02:11:30.671Z,6.82
2022-10-11T02:14:41.524Z,6.83
2022-10-11T02:17:51.776Z,6.79
2022-10-11T02:21:00.850Z,6.75
2022-10-11T02:24:11.586Z,6.79
2022-10-11T02:27:17.441Z,6.80
2022-10-11T02:30:20.908Z,6.79
2022-10-11T02:33:31.524Z,6.73
2022-10-11T02:36:48.259Z,6.69
2022-10-11T02:40:04.200Z,6.65
2022-10-11T02:43:29.167Z,6.66
2022-10-11T02:46:33.765Z,6.70
2022-10-11T02:49:37.506Z,6.63
2022-10-11T02:52:40.856Z,6.73
2022-10-11T02:55:44.332Z,6.77
2022-10-11T02:58:47.796Z,6.82
2022-10-11T03:01:51.327Z,6.84
2022-10-11T03:04:54.394Z,6.89
2022-10-11T03:07:58.602Z,6.86
2022-10-11T03:11:01.379Z,6.83
2022-10-11T03:14:05.672Z,6.76
2022-10-11T03:17:34.633Z,6.79
2022-10-11T03:20:32.691Z,6.80
2022-10-11T03:23:35.789Z,6.77
2022-10-11T03:26:39.144Z,6.98
2022-10-11T03:29:42.326Z,7.07
2022-10-11T03:32:46.446Z,7.19
2022-10-11T03:35:50.337Z,7.29
2022-10-11T03:38:55.022Z,7.43
2022-10-11T03:41:58.110Z,7.58
2022-10-11T03:45:05.548Z,7.74
2022-10-11T03:48:09.526Z,7.86
2022-10-11T03:51:13.415Z,7.97
2022-10-11T03:54:16.455Z,7.98
2022-10-11T03:57:20.848Z,8.01
2022-10-11T04:00:24.195Z,8.22
2022-10-11T04:03:28.001Z,8.28
2022-10-11T04:06:31.310Z,8.36
2022-10-11T04:09:35.215Z,8.39
2022-10-11T04:12:39.283Z,8.39
2022-10-11T04:15:42.673Z,8.49
2022-10-11T04:18:45.800Z,8.56
2022-10-11T04:21:49.383Z,8.62
2022-10-11T04:24:52.416Z,8.66
2022-10-11T04:27:55.843Z,8.67
2022-10-11T04:30:59.833Z,8.78
2022-10-11T04:34:04.671Z,8.81
2022-10-11T04:37:07.841Z,8.81
2022-10-11T04:40:12.821Z,8.85
2022-10-11T04:43:17.725Z,8.88
2022-10-11T04:46:21.725Z,8.86
2022-10-11T04:49:25.034Z,8.86
2022-10-11T04:52:28.605Z,8.85
2022-10-11T04:55:31.896Z,8.85
2022-10-11T04:58:35.933Z,8.83
2022-10-11T05:01:39.401Z,8.72
2022-10-11T05:04:43.042Z,8.69
2022-10-11T05:07:46.322Z,8.61
2022-10-11T05:11:01.686Z,8.54
2022-10-11T05:14:04.715Z,8.51
2022-10-11T05:17:08.397Z,8.61
2022-10-11T05:20:12.892Z,8.62
2022-10-11T05:23:16.296Z,8.68
2022-10-11T05:26:20.663Z,8.75
2022-10-11T05:29:24.056Z,8.80
2022-10-11T05:32:28.098Z,8.90
2022-10-11T05:35:31.589Z,9.04
2022-10-11T05:38:35.577Z,9.19
2022-10-11T05:41:39.171Z,9.32
2022-10-11T05:44:51.984Z,9.37
2022-10-11T05:47:55.317Z,9.43
2022-10-11T05:51:00.415Z,9.50
2022-10-11T05:54:03.653Z,9.60
2022-10-11T05:57:06.949Z,9.66
2022-10-11T06:00:11.564Z,9.78
2022-10-11T06:03:16.996Z,9.87
2022-10-11T06:06:20.971Z,10.02
2022-10-11T06:09:24.479Z,10.22
2022-10-11T06:12:30.267Z,10.36
2022-10-11T06:15:34.275Z,10.46
2022-10-11T06:18:38.316Z,10.59
2022-10-11T06:21:41.467Z,10.59
2022-10-11T06:24:44.986Z,10.79
2022-10-11T06:27:48.032Z,10.90
2022-10-11T06:30:51.831Z,11.06
2022-10-11T06:33:55.116Z,11.41
2022-10-11T06:36:58.523Z,11.97
2022-10-11T06:40:02.445Z,12.40
2022-10-11T06:43:06.196Z,12.72
2022-10-11T06:46:09.468Z,12.52
2022-10-11T06:49:13.246Z,12.40
2022-10-11T06:52:16.719Z,12.17
2022-10-11T06:55:20.780Z,12.00
2022-10-11T06:58:24.388Z,11.90
2022-10-11T07:01:29.053Z,11.87
2022-10-11T07:04:34.071Z,11.98
2022-10-11T07:07:37.581Z,12.07
2022-10-11T07:10:41.023Z,12.61
2022-10-11T07:13:50.986Z,13.18
2022-10-11T07:16:58.793Z,13.71
2022-10-11T07:20:09.735Z,13.86
2022-10-11T07:23:12.892Z,13.76
2022-10-11T07:26:16.659Z,13.97
2022-10-11T07:29:20.414Z,14.31
2022-10-11T07:32:23.813Z,14.37
2022-10-11T07:35:26.843Z,14.35
2022-10-11T07:38:30.399Z,14.52
2022-10-11T07:41:33.912Z,14.69
2022-10-11T07:44:37.333Z,14.55
2022-10-11T07:47:40.438Z,14.63
2022-10-11T07:50:44.115Z,14.64
2022-10-11T07:53:50.140Z,14.90
2022-10-11T07:56:53.463Z,14.88
2022-10-11T07:59:56.804Z,15.21
2022-10-11T08:03:03.967Z,15.68
2022-10-11T08:06:09.949Z,15.91
2022-10-11T08:09:14.076Z,16.37
2022-10-11T08:12:18.124Z,16.46
2022-10-11T08:15:22.321Z,16.74
2022-10-11T08:18:27.041Z,16.67
2022-10-11T08:21:30.132Z,16.58
2022-10-11T08:24:38.320Z,16.39
2022-10-11T08:27:41.629Z,16.25
2022-10-11T08:30:53.991Z,16.33
2022-10-11T08:33:57.205Z,16.38
2022-10-11T08:37:00.876Z,16.52
2022-10-11T08:40:06.240Z,16.79
2022-10-11T08:43:29.589Z,17.12
2022-10-11T08:46:35.329Z,17.40
2022-10-11T08:49:40.824Z,17.30
2022-10-11T08:52:57.770Z,17.61
2022-10-11T08:56:03.352Z,17.60
2022-10-11T08:59:13.585Z,17.78
2022-10-11T09:02:26.333Z,17.93
2022-10-11T09:05:49.671Z,18.15
2022-10-11T09:09:11.632Z,18.06
2022-10-11T09:12:40.529Z,18.05
2022-10-11T09:16:19.763Z,18.48
2022-10-11T09:19:28.755Z,18.42
2022-10-11T09:22:46.157Z,18.26
2022-10-11T09:26:02.438Z,18.20
2022-10-11T09:29:29.750Z,18.11
2022-10-11T09:32:40.386Z,18.19
2022-10-11T09:35:47.912Z,17.96
2022-10-11T09:39:06.527Z,17.69
2022-10-11T09:42:12.030Z,17.88
2022-10-11T09:45:19.043Z,17.75
2022-10-11T09:48:30.769Z,17.75
2022-10-11T09:51:34.758Z,17.77
2022-10-11T09:54:49.631Z,17.57
2022-10-11T09:57:55.679Z,17.70
2022-10-11T10:01:08.519Z,18.15
2022-10-11T10:04:14.855Z,18.44
2022-10-11T10:07:18.024Z,18.54
2022-10-11T10:10:29.882Z,18.48
2022-10-11T10:13:46.731Z,18.40
2022-10-11T10:16:59.419Z,18.61
2022-10-11T10:20:05.752Z,18.68
2022-10-11T10:23:24.973Z,18.91
2022-10-11T10:26:28.089Z,18.78
2022-10-11T10:29:31.449Z,18.47
2022-10-11T10:32:47.551Z,18.47
2022-10-11T10:36:07.435Z,18.31
2022-10-11T10:39:47.910Z,18.05
2022-10-11T10:42:51.560Z,18.39
2022-10-11T10:46:13.163Z,18.57
2022-10-11T10:49:53.798Z,18.52
2022-10-11T10:53:14.576Z,18.57
2022-10-11T10:56:29.923Z,18.60
2022-10-11T10:59:46.548Z,18.73
2022-10-11T11:03:42.828Z,18.67
2022-10-11T11:06:59.684Z,18.54
2022-10-11T11:10:07.845Z,18.64
2022-10-11T11:13:23.551Z,18.77
2022-10-11T11:16:42.266Z,18.76
2022-10-11T11:20:00.889Z,18.75
2022-10-11T11:23:29.716Z,19.02
2022-10-11T11:26:48.051Z,19.27
2022-10-11T11:30:04.092Z,19.26
2022-10-11T11:33:37.116Z,19.92
2022-10-11T11:36:56.490Z,19.95
2022-10-11T11:40:15.702Z,19.81
2022-10-11T11:43:39.998Z,19.99
2022-10-11T11:46:50.647Z,20.29
2022-10-11T11:49:59.545Z,20.64
2022-10-11T11:53:08.136Z,21.00
2022-10-11T11:56:26.050Z,20.97
2022-10-11T11:59:59.589Z,20.89
2022-10-11T12:03:11.976Z,21.26
2022-10-11T12:06:16.047Z,21.89
2022-10-11T12:09:19.167Z,21.98
2022-10-11T12:12:29.358Z,22.02
2022-10-11T12:15:34.320Z,21.90
2022-10-11T12:18:56.606Z,21.35
2022-10-11T12:22:26.641Z,21.36
2022-10-11T12:25:38.387Z,21.80
2022-10-11T12:28:41.337Z,22.01
2022-10-11T12:32:11.557Z,21.99
2022-10-11T12:35:50.125Z,22.03
2022-10-11T12:39:21.383Z,22.07
2022-10-11T12:42:31.907Z,22.18
2022-10-11T12:45:35.461Z,21.75
2022-10-11T12:49:01.619Z,21.91
2022-10-11T12:52:19.436Z,22.13
2022-10-11T12:55:35.558Z,22.15
2022-10-11T12:58:46.476Z,21.98
2022-10-11T13:01:58.863Z,21.71
2022-10-11T13:05:15.640Z,21.51
2022-10-11T13:08:25.675Z,21.43
2022-10-11T13:11:33.857Z,21.19
2022-10-11T13:14:43.820Z,21.11
2022-10-11T13:17:48.919Z,21.35
2022-10-11T13:20:52.913Z,21.10
2022-10-11T13:24:00.076Z,21.09
2022-10-11T13:27:03.888Z,21.15
2022-10-11T13:30:17.005Z,20.89
2022-10-11T13:33:32.382Z,20.93
2022-10-11T13:36:36.108Z,20.82
2022-10-11T13:39:40.346Z,20.92
2022-10-11T13:42:45.033Z,20.88
2022-10-11T13:45:49.185Z,20.88
2022-10-11T13:49:05.348Z,20.95
2022-10-11T13:52:23.539Z,21.24
2022-10-11T13:55:30.613Z,21.36
2022-10-11T13:58:40.546Z,21.61
2022-10-11T14:01:47.664Z,21.51
2022-10-11T14:04:51.314Z,21.46
2022-10-11T14:07:56.084Z,21.36
2022-10-11T14:11:06.332Z,20.94
2022-10-11T14:14:35.730Z,20.31
2022-10-11T14:17:45.133Z,20.08
2022-10-11T14:20:48.570Z,20.03
2022-10-11T14:24:21.725Z,20.01
2022-10-11T14:27:27.992Z,19.87
2022-10-11T14:30:31.717Z,19.77
2022-10-11T14:33:35.332Z,19.68
2022-10-11T14:36:38.674Z,19.60
2022-10-11T14:39:42.581Z,19.41
2022-10-11T14:42:46.064Z,19.27
2022-10-11T14:45:49.113Z,19.16
2022-10-11T14:48:55.907Z,19.07
2022-10-11T14:51:59.891Z,18.94
2022-10-11T14:55:05.272Z,18.74
2022-10-11T14:58:10.436Z,18.63
2022-10-11T15:01:15.988Z,18.52
2022-10-11T15:04:23.762Z,18.46
2022-10-11T15:07:27.630Z,18.41
2022-10-11T15:10:39.378Z,18.30
2022-10-11T15:13:42.980Z,18.12
2022-10-11T15:16:46.435Z,18.11
2022-10-11T15:19:50.956Z,18.03
2022-10-11T15:22:54.758Z,17.90
2022-10-11T15:25:58.070Z,17.83
2022-10-11T15:29:01.557Z,17.77
2022-10-11T15:32:05.056Z,17.69
2022-10-11T15:35:08.426Z,17.62
2022-10-11T15:38:21.437Z,17.48
2022-10-11T15:41:24.466Z,17.42
2022-10-11T15:44:27.848Z,17.33
2022-10-11T15:47:30.890Z,17.24
2022-10-11T15:50:39.845Z,17.17
2022-10-11T15:53:42.965Z,17.01
2022-10-11T15:56:48.068Z,16.86
2022-10-11T15:59:51.049Z,16.63
2022-10-11T16:02:58.268Z,16.33
2022-10-11T16:06:05.377Z,16.00
2022-10-11T16:09:09.748Z,15.69
2022-10-11T16:12:13.052Z,15.34
2022-10-11T16:15:16.949Z,15.05
2022-10-11T16:18:22.290Z,14.90
2022-10-11T16:21:26.519Z,14.76
2022-10-11T16:24:29.886Z,14.68
2022-10-11T16:27:34.131Z,14.58
2022-10-11T16:30:45.199Z,14.54
2022-10-11T16:33:48.981Z,14.43
2022-10-11T16:36:52.390Z,14.34
2022-10-11T16:39:57.308Z,14.18
2022-10-11T16:43:07.501Z,14.18
2022-10-11T16:46:10.934Z,14.22
2022-10-11T16:49:23.512Z,14.11
2022-10-11T16:52:28.227Z,13.85
2022-10-11T16:55:31.610Z,13.75
2022-10-11T16:58:36.571Z,13.63
2022-10-11T17:01:41.036Z,13.50
2022-10-11T17:04:45.442Z,13.43
2022-10-11T17:07:48.642Z,13.41
2022-10-11T17:10:57.730Z,13.38
2022-10-11T17:14:01.870Z,13.30
2022-10-11T17:17:06.633Z,13.32
2022-10-11T17:20:10.261Z,13.30
2022-10-11T17:23:13.784Z,13.30
2022-10-11T17:26:26.471Z,13.27
2022-10-11T17:29:30.072Z,13.28
2022-10-11T17:32:33.372Z,13.28
2022-10-11T17:35:36.386Z,13.28
2022-10-11T17:38:40.248Z,13.35
2022-10-11T17:41:44.500Z,13.40
2022-10-11T17:44:53.950Z,13.40
2022-10-11T17:48:00.751Z,13.36
2022-10-11T17:51:15.095Z,13.42
2022-10-11T17:54:19.691Z,13.43
2022-10-11T17:57:26.584Z,13.22
2022-10-11T18:00:52.283Z,13.41
2022-10-11T18:04:00.830Z,13.50
2022-10-11T18:07:12.525Z,13.49
2022-10-11T18:10:30.904Z,13.44
2022-10-11T18:13:45.221Z,13.48
2022-10-11T18:17:14.392Z,13.42
2022-10-11T18:20:20.068Z,13.25
2022-10-11T18:23:27.366Z,13.27
2022-10-11T18:26:41.619Z,13.17
2022-10-11T18:30:22.307Z,13.18
2022-10-11T18:33:28.854Z,13.08
2022-10-11T18:36:47.632Z,13.11
2022-10-11T18:40:03.802Z,13.11
2022-10-11T18:43:22.286Z,13.02
2022-10-11T18:46:51.731Z,13.15
2022-10-11T18:50:11.198Z,13.13
2022-10-11T18:54:22.668Z,12.84
2022-10-11T18:57:07.771Z,12.99
2022-10-11T19:00:40.884Z,13.04
2022-10-11T19:04:10.409Z,13.08
2022-10-11T19:07:35.064Z,13.08
2022-10-11T19:10:41.063Z,13.00
2022-10-11T19:14:01.724Z,12.80
2022-10-11T19:17:23.031Z,12.80
2022-10-11T19:20:49.545Z,12.53
2022-10-11T19:23:58.834Z,12.63
2022-10-11T19:27:09.864Z,12.22
2022-10-11T19:30:28.516Z,12.31
2022-10-11T19:33:44.691Z,12.21
2022-10-11T19:37:01.191Z,12.05
2022-10-11T19:40:10.867Z,12.04
2022-10-11T19:43:17.594Z,11.84
2022-10-11T19:46:53.394Z,11.63
2022-10-11T19:49:52.442Z,11.79
2022-10-11T19:53:01.366Z,11.79
2022-10-11T19:56:27.522Z,11.71
2022-10-11T19:59:44.030Z,11.71
2022-10-11T20:02:58.889Z,11.78
2022-10-11T20:06:14.597Z,11.65
2022-10-11T20:09:40.021Z,11.88
2022-10-11T20:12:53.407Z,11.86
2022-10-11T20:16:05.719Z,11.90
2022-10-11T20:19:31.063Z,11.93
2022-10-11T20:22:38.297Z,11.91
2022-10-11T20:25:59.890Z,11.80
2022-10-11T20:29:06.007Z,11.69
2022-10-11T20:32:13.949Z,11.60
2022-10-11T20:35:26.214Z,11.48
2022-10-11T20:38:52.587Z,11.34
2022-10-11T20:42:00.059Z,11.20
2022-10-11T20:45:07.632Z,10.96
2022-10-11T20:48:13.516Z,10.91
2022-10-11T20:51:25.447Z,10.56
2022-10-11T20:54:31.764Z,10.66
2022-10-11T21:01:19.284Z,10.58
2022-10-11T21:04:29.250Z,10.55
2022-10-11T21:07:37.062Z,10.49
2022-10-11T21:11:02.629Z,10.50
2022-10-11T21:14:12.722Z,10.53
2022-10-11T21:17:17.437Z,10.66
2022-10-11T21:20:20.618Z,10.72
2022-10-11T21:23:24.250Z,10.74
2022-10-11T21:26:28.560Z,10.76
2022-10-11T21:29:31.945Z,10.77
2022-10-11T21:32:35.280Z,10.69
2022-10-11T21:35:40.302Z,10.56
2022-10-11T21:38:44.033Z,10.41
2022-10-11T21:41:47.384Z,10.27
2022-10-11T21:44:50.722Z,10.12
2022-10-11T21:47:54.269Z,9.99
2022-10-11T21:50:57.239Z,9.99
2022-10-11T21:54:01.266Z,9.86
2022-10-11T21:57:04.252Z,9.81
2022-10-11T22:00:08.407Z,9.75
2022-10-11T22:03:16.046Z,9.66
2022-10-11T22:06:19.638Z,9.66
2022-10-11T22:09:22.824Z,9.65
2022-10-11T22:12:26.131Z,9.59
2022-10-11T22:15:29.266Z,9.51
2022-10-11T22:18:33.828Z,9.45
2022-10-11T22:21:40.134Z,9.42
2022-10-11T22:24:45.927Z,9.39
2022-10-11T22:27:49.134Z,9.33
2022-10-11T22:30:52.380Z,9.31
2022-10-11T22:33:56.843Z,9.29
2022-10-11T22:37:01.317Z,9.29
2022-10-11T22:40:04.831Z,9.28
2022-10-11T22:43:09.437Z,9.27
2022-10-11T22:46:15.271Z,9.28
2022-10-11T22:49:21.166Z,9.29
2022-10-11T22:52:24.471Z,9.36
2022-10-11T22:55:29.058Z,9.37
2022-10-11T22:58:32.580Z,9.28
2022-10-11T23:01:36.585Z,9.29
2022-10-11T23:04:43.184Z,9.41
2022-10-11T23:07:48.341Z,9.42
2022-10-11T23:10:52.888Z,9.41
2022-10-11T23:13:56.183Z,9.42
2022-10-11T23:16:59.208Z,9.39
2022-10-11T23:20:02.750Z,9.40
2022-10-11T23:23:06.987Z,9.32
2022-10-11T23:26:16.479Z,9.40
2022-10-11T23:29:19.518Z,9.48
2022-10-11T23:32:23.417Z,9.46
2022-10-11T23:35:26.720Z,9.37
2022-10-11T23:38:30.003Z,9.45
2022-10-11T23:41:33.088Z,9.46
2022-10-11T23:44:36.538Z,9.45
2022-10-11T23:47:40.424Z,9.44
2022-10-11T23:50:44.130Z,9.38
2022-10-11T23:53:47.410Z,9.44
2022-10-11T23:56:50.719Z,9.49
2022-10-11T23:59:53.734Z,9.41
